Ana Sayfa
METAR-TAF:

METAR-TAF

Havaalanları :

Mitiga International Airport

Trablus, Libya

Enlem: 32-54N, Boylam: 13-17E, yükseklik: 11 m

Güncel hava durumu gözlemi

Rapor saat 03:50 UTC de 46 dakika önce yapıldı.
Rüzgar kuzey/kuzeybatıdan 5 kt
Sıcaklık 22°C
Nem 73%
Basınç 1014 hPa
Görüş mesafesi: 6000 m
2500 ft yükseklikte az bulutlu
8000 ft yükseklikte parçalı bulutlu

METAR: HLLM 190350Z 34005KT 6000 FEW025 SCT080 22/17 Q1014

Saat: 06:36 (04:36 UTC)

Tahmin

Rapor saat 05:00 UTC de 23 saat ve 36 dakika önce yapıldı.
Ayın 18'si saat 06 UTC'den ayın 19'si saat 06 UTC'ye kadar geçerli Tahmin
Rüzgar kuzey/kuzeybatıdan 10 kt
Görüş mesafesi 10 km veya daha fazla
3000 ft yükseklikte az bulutlu
8000 ft yükseklikte parçalı bulutlu

TAF: HLLM 180500Z 1806/1906 33010KT 9999 FEW030 SCT080

4.000'den fazla havaalanı için hava durumu gözlemleri ve tahminleri (METAR ve TAF raporları).

Kullanılabilir istasyonlar harita üzerinde sarı ve kırmızı noktalarla gösterilir.

İstasyonun adını görmek için fareyi noktanın üzerinde gezdirin.

Sonrasında hava gözlem ve tahminlerini görmek için tıklayın.

Haritayı değiştirmek için: yaklaştırmak için siyah artı işaretli yeşil düğmeye ve uzaklaştırmak için de eksi işaretli düğmeye hızla tıklayın; bitişik haritalar için yeşil okları kullanın.


METAR-TAF: